Time;durP1;ratioP1;P1;durP2;ratioP2;P2;SDS_P1;SDS_P2;PMS_P1;PMS_P2;Temp;Humidity;BMP_temperature;BMP_pressure;BME280_temperature;BME280_humidity;BME280_pressure;Samples;Min_cycle;Max_cycle;Signal;HPM_P1;HPM_P2
2021/01/29 00:01:14;;;;;;;5.38;3.30;;;;;;;-10.25;35.27;102542.91;4910969;29;20028;-84
2021/01/29 00:12:10;;;;;;;17.70;5.80;;;;;;;-11.31;36.16;102346.88;5914608;23;20024;-83
2021/01/29 00:14:37;;;;;;;9.07;4.78;;;;;;;-13.22;35.61;101983.00;4836600;29;20042;-82
2021/01/29 00:17:05;;;;;;;7.35;3.92;;;;;;;-12.08;36.01;102242.38;4817193;29;20034;-82
2021/01/29 00:19:32;;;;;;;10.07;3.83;;;;;;;-12.07;35.61;102169.34;4832073;29;20034;-82
2021/01/29 00:21:59;;;;;;;9.85;4.13;;;;;;;-10.17;35.01;102489.88;4839088;29;20034;-81
2021/01/29 00:24:27;;;;;;;10.35;3.33;;;;;;;-10.79;35.71;102390.97;4845263;29;20026;-81
2021/01/29 00:26:56;;;;;;;8.18;4.38;;;;;;;-10.76;35.85;102377.44;4822616;29;20026;-82
2021/01/29 00:29:23;;;;;;;5.65;2.95;;;;;;;-12.42;35.67;102123.72;4831329;29;20034;-82
2021/01/29 00:31:52;;;;;;;6.53;4.07;;;;;;;-11.91;35.78;102230.09;4828247;29;20568;-81
2021/01/29 00:34:19;;;;;;;15.75;4.07;;;;;;;-11.75;36.02;102220.47;4826428;29;20517;-82
2021/01/29 00:36:46;;;;;;;15.85;4.38;;;;;;;-11.17;35.99;102325.72;4847575;29;20030;-82
2021/01/29 00:39:17;;;;;;;10.35;3.72;;;;;;;-11.29;35.29;102347.69;4853044;29;20029;-84
2021/01/29 00:42:12;;;;;;;10.73;5.27;;;;;;;-11.34;35.89;102282.84;4852849;29;20037;-84
2021/01/29 00:44:42;;;;;;;7.85;4.75;;;;;;;-12.16;35.18;102162.63;4826917;29;20354;-84
2021/01/29 00:47:23;;;;;;;7.63;3.08;;;;;;;-11.13;35.11;102279.19;4830784;29;20048;-83
2021/01/29 00:50:22;;;;;;;5.32;3.72;;;;;;;-14.04;35.25;101879.88;4868845;29;20029;-83
2021/01/29 00:53:10;;;;;;;4.57;2.97;;;;;;;-13.20;34.67;102001.59;4802844;29;20042;-85
2021/01/29 00:56:12;;;;;;;14.32;6.45;;;;;;;-10.18;34.49;102523.84;4855140;29;20054;-84
2021/01/29 00:58:55;;;;;;;13.85;4.40;;;;;;;-9.90;34.37;102498.44;4857228;29;20038;-84
2021/01/29 01:01:24;;;;;;;8.32;5.65;;;;;;;-11.78;34.50;102193.03;4846354;29;20035;-84
2021/01/29 01:04:44;;;;;;;14.00;4.15;;;;;;;-9.21;34.24;102493.31;4860458;29;20026;-83
2021/01/29 01:07:58;;;;;;;11.35;3.95;;;;;;;-8.90;33.28;102487.31;4864520;29;20089;-84
2021/01/29 01:11:39;;;;;;;10.18;4.05;;;;;;;-8.99;33.21;102499.44;4862297;29;20022;-83
2021/01/29 01:14:30;;;;;;;11.90;4.13;;;;;;;-11.44;34.04;102162.94;4884075;29;20093;-84
2021/01/29 01:17:19;;;;;;;11.02;4.05;;;;;;;-9.05;33.52;102526.56;4835313;29;20049;-86
2021/01/29 01:20:06;;;;;;;6.30;2.95;;;;;;;-11.65;33.11;102089.13;4878768;29;20029;-84
2021/01/29 01:22:33;;;;;;;13.50;4.07;;;;;;;-10.21;34.41;102402.56;4876737;29;20034;-82
2021/01/29 01:25:00;;;;;;;9.60;5.15;;;;;;;-10.57;34.20;102258.78;4848536;29;20041;-81
2021/01/29 01:27:27;;;;;;;15.48;6.30;;;;;;;-9.86;34.41;102404.47;4858607;29;20033;-82
2021/01/29 01:29:54;;;;;;;9.85;3.55;;;;;;;-9.18;33.84;102405.56;4856559;29;20041;-82
2021/01/29 01:32:32;;;;;;;7.57;4.40;;;;;;;-10.82;34.14;102209.13;4833539;29;20045;-82
2021/01/29 01:35:14;;;;;;;8.80;4.63;;;;;;;-8.51;33.57;102496.91;4853800;29;20041;-83
2021/01/29 01:38:10;;;;;;;13.23;4.93;;;;;;;-9.10;33.62;102476.66;4951250;24;20057;-80
2021/01/29 01:40:38;;;;;;;;;;;;;;;-8.67;33.75;102513.00;4891368;29;20041;-81
2021/01/29 01:43:07;;;;;;;11.65;4.07;;;;;;;-8.99;34.10;102451.13;4894222;29;19993;-82
2021/01/29 01:45:33;;;;;;;7.60;3.63;;;;;;;-8.12;32.50;102511.84;4884071;29;20036;-79
2021/01/29 01:48:14;;;;;;;9.20;4.43;;;;;;;-8.20;33.36;102511.38;4880990;29;20120;-79
2021/01/29 01:50:47;;;;;;;8.85;4.25;;;;;;;-10.03;33.15;102168.53;4887749;29;20029;-79
2021/01/29 01:53:44;;;;;;;14.48;5.20;;;;;;;-7.96;34.07;102529.81;4885009;29;20029;-79
2021/01/29 01:56:26;;;;;;;5.13;3.40;;;;;;;-9.22;33.12;102335.09;4890781;29;20070;-80
2021/01/29 01:59:00;;;;;;;14.43;5.43;;;;;;;-8.12;33.18;102427.63;4881923;29;20025;-79
2021/01/29 02:01:28;;;;;;;13.30;6.15;;;;;;;-8.47;32.45;102406.25;4889103;29;20025;-80
2021/01/29 02:03:57;;;;;;;13.75;5.93;;;;;;;-7.91;31.31;102433.59;4888625;29;20029;-80
2021/01/29 02:06:29;;;;;;;10.68;5.10;;;;;;;-8.41;32.33;102400.56;4889479;29;20029;-80
2021/01/29 02:09:02;;;;;;;9.68;3.97;;;;;;;-8.27;31.69;102477.75;4895094;29;20025;-79
2021/01/29 02:11:41;;;;;;;4.30;2.83;;;;;;;-8.14;32.38;102529.84;4878639;29;20065;-83
2021/01/29 02:14:26;;;;;;;7.65;3.70;;;;;;;-9.28;31.46;102266.50;4902024;29;20077;-82
2021/01/29 02:17:24;;;;;;;8.35;3.75;;;;;;;-8.13;32.58;102528.03;4901204;29;20004;-83
2021/01/29 02:23:29;;;;;;;12.55;5.15;;;;;;;-10.55;33.16;102228.31;5882080;23;20026;-82
2021/01/29 02:26:58;;;;;;;9.25;3.33;;;;;;;-8.16;32.02;102504.00;4901703;29;20048;-85
2021/01/29 02:30:17;;;;;;;12.90;4.53;;;;;;;-8.39;32.59;102512.38;4892423;29;20037;-79
2021/01/29 02:33:06;;;;;;;5.93;3.67;;;;;;;-8.35;32.13;102498.75;4885551;29;20463;-83
2021/01/29 02:36:02;;;;;;;8.55;4.35;;;;;;;-9.05;32.53;102315.41;4877238;29;20116;-83
2021/01/29 02:38:38;;;;;;;8.13;3.70;;;;;;;-7.59;31.53;102484.72;4863212;29;20097;-82
2021/01/29 02:41:28;;;;;;;14.60;3.63;;;;;;;-7.44;31.53;102482.06;4875923;29;20484;-82
2021/01/29 02:44:28;;;;;;;8.60;4.72;;;;;;;-8.69;31.20;102385.97;4876856;29;20057;-82
2021/01/29 02:46:58;;;;;;;;;;;;;;;-7.79;31.29;102467.00;4891546;29;20530;-82
2021/01/29 02:49:44;;;;;;;12.10;4.57;;;;;;;-7.30;31.67;102457.91;4893289;29;20418;-83
2021/01/29 02:52:20;;;;;;;8.10;4.68;;;;;;;-7.21;29.23;102450.25;4874428;29;20037;-83
2021/01/29 02:55:04;;;;;;;9.23;4.07;;;;;;;-8.80;30.65;102265.75;4894521;29;20048;-81
2021/01/29 02:57:48;;;;;;;8.57;4.47;;;;;;;-8.35;31.08;102361.72;4888995;29;20037;-84
2021/01/29 03:03:30;;;;;;;7.18;3.80;;;;;;;-8.28;31.34;102467.91;5408383;23;20056;-84
2021/01/29 03:06:30;;;;;;;6.53;4.45;;;;;;;-7.83;31.24;102460.09;4934986;29;20437;-83
2021/01/29 03:09:35;;;;;;;9.65;4.45;;;;;;;-8.26;30.69;102441.84;4900239;29;20020;-83
2021/01/29 03:12:42;;;;;;;7.00;3.05;;;;;;;-9.06;32.11;102286.81;4912944;29;20035;-83
2021/01/29 03:15:47;;;;;;;9.63;5.10;;;;;;;-9.28;31.59;102169.94;4895746;29;20052;-83
2021/01/29 03:19:05;;;;;;;12.27;4.68;;;;;;;-7.49;30.12;102458.13;4881590;29;20067;-83
2021/01/29 03:21:53;;;;;;;6.07;3.67;;;;;;;-8.24;31.33;102337.81;4913275;29;20053;-83
2021/01/29 03:24:29;;;;;;;9.88;3.72;;;;;;;-7.85;30.33;102444.03;4898699;29;20041;-84
2021/01/29 03:27:21;;;;;;;7.40;3.10;;;;;;;-11.14;32.18;101935.09;4892946;29;20037;-83
2021/01/29 03:30:16;;;;;;;9.05;4.05;;;;;;;-8.42;32.38;102232.25;4879625;29;20052;-81
2021/01/29 03:32:49;;;;;;;8.15;4.22;;;;;;;-8.31;32.47;102255.81;4903312;29;20131;-80
2021/01/29 03:35:28;;;;;;;6.95;3.78;;;;;;;-7.17;32.38;102446.44;4907286;29;20033;-80
2021/01/29 03:38:13;;;;;;;10.60;4.95;;;;;;;-7.60;32.80;102437.22;4906514;29;20040;-80
2021/01/29 03:40:43;;;;;;;10.10;4.38;;;;;;;-8.56;31.51;102225.03;4885424;29;20519;-80
2021/01/29 03:43:30;;;;;;;8.27;4.03;;;;;;;-7.94;32.69;102398.84;4869554;29;20037;-80
2021/01/29 03:46:11;;;;;;;11.05;4.28;;;;;;;-8.32;31.77;102267.53;4885782;29;20093;-79
2021/01/29 03:48:57;;;;;;;11.68;4.65;;;;;;;-7.42;31.14;102426.38;4900411;29;20498;-79
2021/01/29 03:58:11;;;;;;;15.32;5.07;;;;;;;-10.37;32.50;101891.78;4983538;23;20072;-84
2021/01/29 04:01:05;;;;;;;9.80;4.53;;;;;;;-7.26;33.57;102420.06;4912634;29;20025;-84
2021/01/29 04:03:43;;;;;;;14.77;4.53;;;;;;;-7.40;32.31;102413.69;4915161;29;20092;-83
2021/01/29 04:07:08;;;;;;;8.70;3.78;;;;;;;-7.60;32.29;102412.16;4912328;29;20068;-84
2021/01/29 04:09:59;;;;;;;9.60;4.75;;;;;;;-9.64;33.65;102141.50;4908517;29;20108;-82
2021/01/29 04:12:40;;;;;;;4.43;3.08;;;;;;;-8.93;33.35;102238.69;4911695;29;20087;-82
2021/01/29 04:15:33;;;;;;;12.38;5.32;;;;;;;-9.09;33.29;102214.53;4910876;29;20024;-81
2021/01/29 04:18:28;;;;;;;5.22;2.67;;;;;;;-7.70;30.97;102410.03;4909285;29;20043;-84
2021/01/29 04:21:13;;;;;;;7.03;4.18;;;;;;;-8.22;30.35;102427.28;4906261;29;20123;-82
2021/01/29 04:23:46;;;;;;;12.02;4.70;;;;;;;-7.99;31.36;102408.97;4891235;29;20032;-81
2021/01/29 04:26:35;;;;;;;7.05;4.05;;;;;;;-7.51;30.24;102406.25;4893882;29;20032;-82
2021/01/29 04:29:27;;;;;;;7.63;4.32;;;;;;;-7.88;30.80;102430.78;4894231;29;20037;-81
2021/01/29 04:32:04;;;;;;;9.63;3.70;;;;;;;-8.50;30.53;102189.72;4877351;29;20033;-79
2021/01/29 04:34:42;;;;;;;8.38;4.40;;;;;;;-8.79;31.69;102254.06;4906389;24;20079;-83
2021/01/29 04:37:58;;;;;;;6.18;3.10;;;;;;;-9.39;31.67;102055.19;4911229;29;20036;-82
2021/01/29 04:40:35;;;;;;;7.32;4.18;;;;;;;-7.86;31.56;102320.41;4912137;29;20175;-83
2021/01/29 04:43:31;;;;;;;11.32;5.32;;;;;;;-7.05;31.19;102397.25;4915399;29;20049;-83
2021/01/29 04:46:21;;;;;;;15.27;2.95;;;;;;;-8.28;31.60;102331.75;4915829;29;20039;-83
2021/01/29 04:49:12;;;;;;;11.27;4.75;;;;;;;-7.41;30.80;102385.03;4931873;29;20036;-83
2021/01/29 04:52:25;;;;;;;7.00;4.38;;;;;;;-9.05;31.01;102106.06;4919925;29;20043;-83
2021/01/29 04:55:30;;;;;;;11.25;5.35;;;;;;;-7.32;32.06;102389.88;4920886;29;20032;-83
2021/01/29 04:58:32;;;;;;;28.25;5.55;;;;;;;-9.74;31.94;102014.28;4919907;29;20055;-83
2021/01/29 05:01:37;;;;;;;6.45;4.00;;;;;;;-7.51;31.58;102397.31;4934793;29;20032;-82
2021/01/29 05:04:37;;;;;;;10.35;4.90;;;;;;;-7.12;32.33;102386.94;4935258;29;20036;-83
2021/01/29 05:07:44;;;;;;;9.13;3.42;;;;;;;-7.21;32.44;102396.41;4936257;29;20028;-82
2021/01/29 05:10:23;;;;;;;12.82;3.90;;;;;;;-7.48;33.58;102399.81;4916695;29;20029;-83
2021/01/29 05:13:13;;;;;;;12.23;5.18;;;;;;;-7.23;33.41;102399.22;4914424;29;20048;-82
2021/01/29 05:16:09;;;;;;;11.80;5.05;;;;;;;-10.98;34.06;101834.44;4916017;29;20029;-83
2021/01/29 05:18:48;;;;;;;8.82;4.22;;;;;;;-7.16;34.76;102394.31;4914805;29;20040;-82
2021/01/29 05:21:23;;;;;;;14.23;3.45;;;;;;;-8.42;33.61;102167.78;4905649;29;20032;-83
2021/01/29 05:24:36;;;;;;;11.50;4.00;;;;;;;-9.53;32.77;101911.19;4917439;29;20032;-83
2021/01/29 05:27:41;;;;;;;6.85;3.60;;;;;;;-7.48;32.74;102394.44;4899764;29;20037;-83
2021/01/29 05:30:33;;;;;;;10.63;4.00;;;;;;;-7.09;33.41;102390.31;4900379;29;20028;-82
2021/01/29 05:33:24;;;;;;;21.55;5.75;;;;;;;-6.69;33.34;102381.59;4917463;29;20048;-82
2021/01/29 05:36:09;;;;;;;10.57;4.60;;;;;;;-6.82;33.13;102384.19;4916237;29;20052;-82
2021/01/29 05:39:04;;;;;;;8.93;4.30;;;;;;;-6.99;32.79;102346.66;4932283;29;20038;-83
2021/01/29 05:42:18;;;;;;;10.18;5.50;;;;;;;-9.38;32.95;101905.88;4917995;29;20035;-83
2021/01/29 05:45:05;;;;;;;11.80;5.55;;;;;;;-6.47;34.57;102380.25;4921444;29;20040;-82
2021/01/29 05:47:47;;;;;;;9.70;4.80;;;;;;;-6.74;33.66;102381.00;4919027;29;20091;-82
2021/01/29 05:50:41;;;;;;;9.57;4.63;;;;;;;-7.01;34.20;102388.00;4934204;29;20036;-82
2021/01/29 05:53:35;;;;;;;9.85;4.60;;;;;;;-7.32;33.49;102389.88;4933188;29;20032;-83
2021/01/29 05:56:22;;;;;;;7.05;4.03;;;;;;;-8.70;34.45;102186.41;4918959;29;20051;-82
2021/01/29 05:59:10;;;;;;;15.98;5.13;;;;;;;-6.89;33.75;102385.53;4916977;29;20032;-83
2021/01/29 06:01:56;;;;;;;13.13;4.40;;;;;;;-6.97;34.70;102393.22;4931920;29;20036;-82
2021/01/29 06:04:42;;;;;;;11.00;5.45;;;;;;;-6.80;35.68;102406.50;4933391;29;20028;-83
2021/01/29 06:07:31;;;;;;;8.82;4.75;;;;;;;-10.08;36.19;101932.16;4920231;29;20035;-82
2021/01/29 06:10:35;;;;;;;15.70;5.80;;;;;;;-6.79;36.61;102397.47;4917263;29;20052;-82
2021/01/29 06:13:29;;;;;;;10.45;4.85;;;;;;;-7.85;36.65;102312.25;4921073;29;20499;-83
2021/01/29 06:16:31;;;;;;;7.68;3.72;;;;;;;-6.70;35.24;102400.53;4932365;29;20060;-82
2021/01/29 06:19:11;;;;;;;12.07;6.32;;;;;;;-7.15;36.39;102409.50;4931202;29;20036;-83
2021/01/29 06:22:11;;;;;;;14.05;5.15;;;;;;;-8.49;36.70;102145.78;4931147;29;20028;-83
2021/01/29 06:25:00;;;;;;;;;;;;;;;-6.89;36.80;102396.31;4916128;29;20052;-83
2021/01/29 06:28:03;;;;;;;10.30;5.22;;;;;;;-6.43;37.06;102397.09;4932335;29;19969;-82
2021/01/29 06:30:42;;;;;;;13.05;4.80;;;;;;;-8.79;35.57;102106.38;4932876;29;20040;-82
2021/01/29 06:33:36;;;;;;;8.13;4.50;;;;;;;-6.91;35.64;102387.44;4933824;29;20039;-81
2021/01/29 06:36:21;;;;;;;11.52;5.22;;;;;;;-6.79;35.43;102391.22;4933741;29;20542;-82
2021/01/29 06:39:09;;;;;;;15.27;6.25;;;;;;;-7.10;36.29;102383.19;4933744;29;20135;-82
2021/01/29 06:41:51;;;;;;;6.03;3.63;;;;;;;-8.88;36.45;102113.16;4914268;29;20062;-83
2021/01/29 06:44:56;;;;;;;9.75;4.75;;;;;;;-6.65;35.79;102371.50;4909873;29;20041;-82
2021/01/29 06:47:42;;;;;;;15.18;5.65;;;;;;;-6.58;36.59;102390.81;4892330;29;20044;-81
2021/01/29 06:50:59;;;;;;;13.48;6.05;;;;;;;-6.68;35.44;102420.16;4912213;29;20032;-83
2021/01/29 06:54:10;;;;;;;9.50;5.47;;;;;;;-6.43;34.62;102387.16;4891315;29;20061;-82
2021/01/29 06:57:08;;;;;;;8.90;4.25;;;;;;;-8.58;35.61;102149.03;4833888;29;20038;-83
2021/01/29 07:00:16;;;;;;;6.55;5.03;;;;;;;-6.54;35.11;102385.13;4944306;29;20038;-82
2021/01/29 07:03:19;;;;;;;15.23;4.95;;;;;;;-6.23;35.12;102380.47;4889165;29;20044;-83
2021/01/29 07:05:49;;;;;;;11.73;5.18;;;;;;;-6.36;35.16;102393.03;4928725;29;20032;-81
2021/01/29 07:08:32;;;;;;;8.40;4.63;;;;;;;-8.36;34.88;102073.38;4929638;29;20501;-83
2021/01/29 07:11:26;;;;;;;12.10;6.07;;;;;;;-6.29;35.17;102393.50;4927558;29;20076;-82
2021/01/29 07:14:55;;;;;;;13.50;6.70;;;;;;;-8.14;35.58;102097.09;4928167;29;20403;-82
2021/01/29 07:17:54;;;;;;;16.70;4.53;;;;;;;-6.24;34.70;102403.03;4868661;29;20411;-82
2021/01/29 07:20:48;;;;;;;11.40;5.68;;;;;;;-6.44;34.76;102407.00;4895767;29;20051;-82
2021/01/29 07:23:49;;;;;;;12.38;5.13;;;;;;;-7.79;34.47;102242.94;4893266;29;20048;-82
2021/01/29 07:26:37;;;;;;;10.85;5.68;;;;;;;-6.99;33.94;102303.56;4911422;29;20051;-83
2021/01/29 07:29:41;;;;;;;19.63;5.00;;;;;;;-6.17;34.65;102398.13;4913951;29;20024;-82
2021/01/29 07:35:32;;;;;;;10.10;5.20;;;;;;;-6.50;35.49;102418.16;5461340;23;20053;-82
2021/01/29 07:44:02;;;;;;;7.50;5.10;;;;;;;-6.22;35.02;102390.31;5609865;23;20032;-85
2021/01/29 07:47:22;;;;;;;8.75;5.32;;;;;;;-6.66;36.50;102385.94;4923105;29;20055;-84
2021/01/29 07:55:29;;;;;;;18.25;5.35;;;;;;;-6.53;35.74;102380.63;5966844;23;20019;-82
2021/01/29 07:59:03;;;;;;;15.60;4.70;;;;;;;-7.16;36.25;102292.03;4902403;29;20049;-83
2021/01/29 08:01:41;;;;;;;11.82;5.55;;;;;;;-6.64;36.48;102384.00;4840874;29;20053;-81
2021/01/29 08:18:42;;;;;;;11.40;4.88;;;;;;;-6.24;35.35;102373.34;5479030;23;20056;-83
2021/01/29 08:30:08;;;;;;;11.32;5.72;;;;;;;-6.43;34.71;102367.44;5341355;23;20068;-81
2021/01/29 08:33:00;;;;;;;17.15;5.50;;;;;;;-6.78;34.30;102307.59;4865668;29;20033;-79
2021/01/29 08:35:27;;;;;;;20.98;6.22;;;;;;;-6.43;34.87;102359.34;4862524;29;20038;-80
2021/01/29 08:38:08;;;;;;;10.73;5.55;;;;;;;-5.95;35.43;102357.09;4882045;29;20089;-80
2021/01/29 08:40:45;;;;;;;11.07;6.53;;;;;;;-5.82;35.56;102367.91;4866084;29;20068;-82
2021/01/29 08:43:36;;;;;;;16.25;5.18;;;;;;;-6.50;34.48;102354.34;4882684;29;20051;-82
2021/01/29 08:46:43;;;;;;;28.83;8.35;;;;;;;-7.40;35.00;102193.03;4877489;29;20479;-81
2021/01/29 08:49:16;;;;;;;11.38;5.25;;;;;;;-6.42;34.86;102344.91;4819147;29;20129;-82
2021/01/29 08:51:46;;;;;;;15.07;6.38;;;;;;;-7.94;35.20;102095.03;4862138;29;20041;-81
2021/01/29 08:54:59;;;;;;;9.40;5.22;;;;;;;-6.29;34.92;102335.06;4856947;29;20518;-81
2021/01/29 08:57:55;;;;;;;10.65;4.97;;;;;;;-6.60;34.75;102347.81;4874405;29;20052;-80
2021/01/29 09:00:34;;;;;;;12.90;5.55;;;;;;;-7.40;35.42;102241.47;4868640;29;20033;-81
2021/01/29 09:03:28;;;;;;;12.50;5.68;;;;;;;-6.61;35.34;102344.25;4883575;29;20033;-80
2021/01/29 09:06:25;;;;;;;21.88;6.15;;;;;;;-6.53;35.72;102341.09;4861072;29;20428;-81
2021/01/29 09:09:04;;;;;;;14.43;5.15;;;;;;;-8.90;35.33;101908.38;4879145;29;20041;-80
2021/01/29 09:11:53;;;;;;;9.32;4.78;;;;;;;-7.02;35.69;102257.03;4864020;29;20163;-81
2021/01/29 09:14:44;;;;;;;15.95;4.85;;;;;;;-7.76;35.74;102119.03;4880263;29;20051;-80
2021/01/29 09:17:46;;;;;;;9.95;5.75;;;;;;;-6.36;36.05;102301.41;4866653;29;20496;-80
2021/01/29 09:20:14;;;;;;;15.18;6.20;;;;;;;-6.07;36.19;102345.31;4860747;29;20124;-81
2021/01/29 09:22:45;;;;;;;9.45;6.65;;;;;;;-6.01;35.38;102338.59;4871432;29;20092;-81
2021/01/29 09:25:34;;;;;;;12.88;6.78;;;;;;;-7.58;36.23;102120.59;4876453;29;20062;-82
2021/01/29 09:28:16;;;;;;;11.52;5.90;;;;;;;-6.10;36.26;102345.53;4875415;29;20495;-80
2021/01/29 09:30:58;;;;;;;14.18;5.82;;;;;;;-6.19;36.50;102348.78;4861641;29;20432;-80
2021/01/29 09:34:08;;;;;;;13.05;6.72;;;;;;;-6.52;37.19;102340.13;4864103;29;20037;-81
2021/01/29 09:36:51;;;;;;;11.52;5.97;;;;;;;-8.09;37.01;102061.03;4804811;29;20039;-81
2021/01/29 09:39:46;;;;;;;18.48;7.07;;;;;;;-7.14;37.15;102233.56;4868822;29;20399;-81
2021/01/29 09:42:29;;;;;;;13.18;5.72;;;;;;;-6.52;37.39;102310.47;4857143;29;20041;-81
2021/01/29 09:45:04;;;;;;;9.73;5.68;;;;;;;-7.42;37.34;102163.50;4865377;29;20053;-83
2021/01/29 09:47:41;;;;;;;12.93;5.85;;;;;;;-6.21;37.24;102348.03;4865698;29;20042;-82
2021/01/29 09:50:09;;;;;;;14.82;6.05;;;;;;;-7.86;36.45;102068.53;4855868;29;20033;-82
2021/01/29 09:53:07;;;;;;;12.50;6.80;;;;;;;-6.34;38.11;102338.06;4866119;29;20032;-81
2021/01/29 09:55:59;;;;;;;21.50;6.85;;;;;;;-6.01;37.47;102341.28;4856633;29;20061;-80
2021/01/29 09:59:03;;;;;;;13.23;6.30;;;;;;;-6.05;37.37;102342.50;4850091;29;20040;-83
2021/01/29 10:01:48;;;;;;;23.60;7.28;;;;;;;-6.97;37.44;102177.78;4869061;29;20108;-80
2021/01/29 10:04:55;;;;;;;12.73;6.65;;;;;;;-8.04;38.11;102021.31;4846383;29;20033;-81
2021/01/29 10:07:26;;;;;;;20.77;5.63;;;;;;;-5.81;36.75;102342.69;4859739;29;20116;-80
2021/01/29 10:10:37;;;;;;;12.57;5.85;;;;;;;-5.89;36.91;102346.88;4877658;29;20032;-82
2021/01/29 10:13:29;;;;;;;15.65;7.15;;;;;;;-7.86;37.28;102036.25;4850486;29;20859;-81
2021/01/29 10:16:35;;;;;;;16.13;5.70;;;;;;;-5.86;37.11;102341.25;4861452;29;20053;-81
2021/01/29 10:19:24;;;;;;;12.25;5.68;;;;;;;-6.46;37.26;102296.56;4861928;29;20056;-82
2021/01/29 10:22:06;;;;;;;17.10;6.32;;;;;;;-5.91;36.84;102337.03;4866996;29;20037;-79
2021/01/29 10:25:01;;;;;;;17.33;6.60;;;;;;;-5.99;37.59;102341.22;4863542;29;20075;-81
2021/01/29 10:27:48;;;;;;;16.33;5.70;;;;;;;-7.56;37.91;102101.63;4863829;29;20090;-82
2021/01/29 10:30:28;;;;;;;15.10;5.93;;;;;;;-7.05;37.94;102189.94;4875396;29;20049;-81
2021/01/29 10:33:16;;;;;;;16.98;7.68;;;;;;;-5.95;37.73;102338.19;4882199;29;20041;-81
2021/01/29 10:35:49;;;;;;;17.55;6.78;;;;;;;-6.31;39.10;102358.53;4884657;29;20032;-81
2021/01/29 10:38:26;;;;;;;12.95;5.05;;;;;;;-7.93;39.03;102106.63;4880651;29;20060;-82
2021/01/29 10:41:16;;;;;;;10.45;5.82;;;;;;;-7.20;38.66;102142.47;4879917;29;20089;-80
2021/01/29 10:44:00;;;;;;;14.87;6.50;;;;;;;-6.81;38.54;102191.09;4879883;29;20042;-82
2021/01/29 10:46:54;;;;;;;11.13;6.13;;;;;;;-5.47;38.77;102347.63;4880297;29;20037;-81
2021/01/29 10:49:36;;;;;;;19.40;6.22;;;;;;;-5.42;38.46;102352.72;4881458;29;20132;-81
2021/01/29 10:52:27;;;;;;;15.27;6.07;;;;;;;-5.32;38.56;102356.50;4880379;29;20033;-80
2021/01/29 10:54:54;;;;;;;14.90;6.07;;;;;;;-6.76;39.25;102170.13;4879669;29;20057;-79
2021/01/29 10:57:49;;;;;;;14.93;6.25;;;;;;;-5.54;38.48;102357.97;4879734;29;20032;-79
2021/01/29 11:00:20;;;;;;;11.70;5.82;;;;;;;-6.75;38.57;102140.41;4885639;29;20510;-80
2021/01/29 11:03:21;;;;;;;17.30;6.80;;;;;;;-7.26;38.70;102083.63;4884372;29;20025;-82
2021/01/29 11:05:49;;;;;;;10.07;5.50;;;;;;;-6.83;38.05;102088.88;4879620;29;20440;-80
2021/01/29 11:08:24;;;;;;;15.52;6.05;;;;;;;-5.29;38.49;102345.50;4864084;29;20040;-81
2021/01/29 11:11:19;;;;;;;17.77;6.75;;;;;;;-5.50;38.76;102339.75;4880268;29;20513;-83
2021/01/29 11:14:18;;;;;;;17.88;6.75;;;;;;;-5.40;38.60;102346.22;4874992;29;20041;-80
2021/01/29 11:17:12;;;;;;;17.33;6.93;;;;;;;-5.27;39.18;102353.50;4879776;29;20035;-80
2021/01/29 11:19:46;;;;;;;14.88;6.65;;;;;;;-6.71;39.17;102142.88;4876982;29;20069;-79
2021/01/29 11:22:39;;;;;;;13.45;6.25;;;;;;;-6.23;39.19;102213.31;4875990;29;20403;-80
2021/01/29 11:25:37;;;;;;;12.88;6.28;;;;;;;-5.26;37.60;102360.63;4879144;29;20029;-84
2021/01/29 11:28:21;;;;;;;14.48;6.60;;;;;;;-6.69;37.89;102124.78;4878703;29;20116;-79
2021/01/29 11:30:59;;;;;;;17.60;7.40;;;;;;;-5.86;38.01;102273.81;4873306;29;20600;-79
2021/01/29 11:33:33;;;;;;;15.52;5.68;;;;;;;-6.46;37.69;102182.53;4866298;29;20053;-78
2021/01/29 11:36:36;;;;;;;19.85;7.03;;;;;;;-6.12;37.59;102217.16;4869463;29;20124;-78
2021/01/29 11:39:18;;;;;;;11.45;6.05;;;;;;;-6.68;38.26;102148.06;4877705;29;20077;-77
2021/01/29 11:42:08;;;;;;;19.92;6.28;;;;;;;-5.35;37.66;102356.72;4872894;29;20108;-79
2021/01/29 11:45:04;;;;;;;21.85;6.45;;;;;;;-5.22;37.62;102356.75;4876899;29;20029;-80
2021/01/29 11:47:41;;;;;;;13.30;7.60;;;;;;;-5.49;37.99;102303.66;4875837;29;20082;-79
2021/01/29 11:50:34;;;;;;;17.75;7.22;;;;;;;-5.11;37.92;102343.34;4876063;29;20049;-77
2021/01/29 11:53:08;;;;;;;12.02;5.97;;;;;;;-6.16;38.05;102188.66;4874867;29;20085;-78
2021/01/29 11:55:44;;;;;;;14.40;7.07;;;;;;;-5.23;37.76;102350.47;4858127;29;20040;-79
2021/01/29 11:58:32;;;;;;;15.70;6.03;;;;;;;-5.26;38.33;102347.13;4866667;29;20040;-81
2021/01/29 12:01:28;;;;;;;26.58;9.88;;;;;;;-5.36;38.27;102360.38;4876547;29;20382;-79
2021/01/29 12:04:35;;;;;;;11.55;6.13;;;;;;;-5.42;38.44;102356.28;4851697;29;20068;-78
2021/01/29 12:07:27;;;;;;;16.88;7.93;;;;;;;-5.37;38.52;102347.84;4870659;29;20064;-78
2021/01/29 12:10:28;;;;;;;21.05;6.82;;;;;;;-5.92;38.30;102267.88;4882054;29;20104;-80
2021/01/29 12:13:03;;;;;;;18.23;7.68;;;;;;;-6.72;38.15;102127.69;4879269;29;20044;-78
2021/01/29 12:15:55;;;;;;;16.73;9.20;;;;;;;-6.30;38.41;102178.81;4876981;29;20114;-79
2021/01/29 12:18:27;;;;;;;14.38;6.93;;;;;;;-7.09;38.82;102078.00;4874953;29;20036;-79
2021/01/29 12:21:06;;;;;;;13.13;6.45;;;;;;;-5.71;38.75;102297.03;4875184;29;20513;-79
2021/01/29 12:24:02;;;;;;;14.93;6.80;;;;;;;-5.51;39.65;102344.25;4875407;29;20487;-80
2021/01/29 12:26:53;;;;;;;8.57;5.45;;;;;;;-5.23;39.03;102376.63;4876148;29;20029;-79
2021/01/29 12:29:32;;;;;;;12.45;6.93;;;;;;;-5.40;39.61;102367.81;4871486;29;20044;-79
2021/01/29 12:32:17;;;;;;;16.05;6.72;;;;;;;-5.52;38.91;102364.13;4865130;29;20470;-80
2021/01/29 12:34:49;;;;;;;13.98;5.85;;;;;;;-5.42;38.95;102377.03;4858576;29;20108;-79
2021/01/29 12:37:29;;;;;;;15.02;6.90;;;;;;;-5.38;38.96;102384.81;4860647;29;20033;-79
2021/01/29 12:40:13;;;;;;;13.52;7.53;;;;;;;-6.48;38.77;102196.09;4857358;29;20038;-78
2021/01/29 12:42:43;;;;;;;11.27;5.70;;;;;;;-5.25;39.44;102378.53;4858317;29;20045;-80
2021/01/29 12:45:27;;;;;;;12.50;6.60;;;;;;;-5.28;39.63;102392.28;4860121;29;20037;-79
2021/01/29 12:48:14;;;;;;;12.93;6.35;;;;;;;-5.50;40.14;102380.22;4855062;29;20310;-79
2021/01/29 12:50:58;;;;;;;15.25;7.38;;;;;;;-5.60;40.56;102379.13;4858085;29;20032;-81
2021/01/29 12:53:34;;;;;;;16.20;7.18;;;;;;;-7.06;40.81;102158.59;4860117;29;20491;-79
2021/01/29 12:56:19;;;;;;;16.13;7.30;;;;;;;-5.77;42.18;102389.19;4858469;29;20404;-79
2021/01/29 12:58:57;;;;;;;18.52;6.43;;;;;;;-6.88;43.16;102220.28;4859703;29;20090;-80
2021/01/29 13:01:36;;;;;;;13.40;8.77;;;;;;;-5.81;43.38;102393.97;4858241;29;20033;-80
2021/01/29 13:04:11;;;;;;;17.52;6.68;;;;;;;-5.71;43.23;102393.34;4859923;29;20041;-78
2021/01/29 13:06:59;;;;;;;15.15;7.03;;;;;;;-5.67;43.09;102384.94;4860873;29;20041;-80
2021/01/29 13:09:36;;;;;;;15.88;7.05;;;;;;;-5.69;43.86;102392.28;4861035;29;20080;-79
2021/01/29 13:12:29;;;;;;;13.10;6.15;;;;;;;-5.81;44.64;102390.38;4865996;29;20058;-79
2021/01/29 13:14:59;;;;;;;22.02;6.97;;;;;;;-5.80;45.26;102400.19;4864493;29;20119;-79
2021/01/29 13:17:36;;;;;;;19.05;6.47;;;;;;;-6.36;46.06;102307.63;4862330;29;20032;-80
2021/01/29 13:20:29;;;;;;;13.82;6.38;;;;;;;-5.79;48.85;102400.09;4859093;29;20128;-79
2021/01/29 13:23:35;;;;;;;10.60;7.50;;;;;;;-6.46;49.32;102307.34;4860793;29;20543;-79
2021/01/29 13:26:13;;;;;;;14.82;7.05;;;;;;;-5.89;50.27;102396.25;4805520;29;20145;-78
2021/01/29 13:29:16;;;;;;;14.80;8.52;;;;;;;-5.95;50.08;102354.38;4798866;29;20046;-79
2021/01/29 13:31:44;;;;;;;15.98;7.32;;;;;;;-7.10;50.76;102164.25;4869721;29;20048;-78
2021/01/29 13:34:13;;;;;;;20.50;7.60;;;;;;;-6.79;51.12;102235.84;4883009;29;20052;-78
2021/01/29 13:37:00;;;;;;;17.13;7.63;;;;;;;-7.49;52.44;102123.66;4881512;29;20040;-80
2021/01/29 13:39:47;;;;;;;15.70;6.93;;;;;;;-5.80;52.86;102384.88;4866503;29;20571;-77
2021/01/29 13:42:19;;;;;;;18.13;8.40;;;;;;;-6.85;53.63;102230.84;4857929;29;20109;-78
2021/01/29 13:44:53;;;;;;;16.52;7.15;;;;;;;-6.96;53.78;102219.91;4880961;29;20510;-81
2021/01/29 13:47:22;;;;;;;15.07;7.07;;;;;;;-6.05;54.72;102385.66;4882192;29;20029;-79
2021/01/29 13:49:49;;;;;;;13.98;6.70;;;;;;;-7.62;53.97;102116.34;4887101;29;20021;-79